sensor_id;sensor_type;location;lat;lon;timestamp;temperature;humidity
48744;DHT22;34538;48.836;9.174;2023-05-07T00:00:19;12.90;99.90
48744;DHT22;34538;48.836;9.174;2023-05-07T00:02:47;13.00;99.90
48744;DHT22;34538;48.836;9.174;2023-05-07T00:05:14;13.00;99.90
48744;DHT22;34538;48.836;9.174;2023-05-07T00:07:41;13.00;99.90
48744;DHT22;34538;48.836;9.174;2023-05-07T00:10:09;13.00;99.90
48744;DHT22;34538;48.836;9.174;2023-05-07T00:12:37;13.10;99.90
48744;DHT22;34538;48.836;9.174;2023-05-07T00:15:06;13.10;99.90
48744;DHT22;34538;48.836;9.174;2023-05-07T00:17:34;13.00;99.90
48744;DHT22;34538;48.836;9.174;2023-05-07T00:20:03;13.10;99.90
48744;DHT22;34538;48.836;9.174;2023-05-07T00:22:31;13.10;99.90
48744;DHT22;34538;48.836;9.174;2023-05-07T00:24:58;13.10;99.90
48744;DHT22;34538;48.836;9.174;2023-05-07T00:27:25;13.10;99.90
48744;DHT22;34538;48.836;9.174;2023-05-07T00:29:52;13.00;99.90
48744;DHT22;34538;48.836;9.174;2023-05-07T00:32:19;13.00;99.90
48744;DHT22;34538;48.836;9.174;2023-05-07T00:34:46;13.00;99.90
48744;DHT22;34538;48.836;9.174;2023-05-07T00:37:14;12.90;99.90
48744;DHT22;34538;48.836;9.174;2023-05-07T00:39:41;12.90;99.90
48744;DHT22;34538;48.836;9.174;2023-05-07T00:42:08;12.90;99.90
48744;DHT22;34538;48.836;9.174;2023-05-07T00:44:34;12.90;99.90
48744;DHT22;34538;48.836;9.174;2023-05-07T00:47:02;12.90;99.90
48744;DHT22;34538;48.836;9.174;2023-05-07T00:49:36;12.90;99.90
48744;DHT22;34538;48.836;9.174;2023-05-07T00:52:05;12.80;99.90
48744;DHT22;34538;48.836;9.174;2023-05-07T00:54:33;12.80;99.90
48744;DHT22;34538;48.836;9.174;2023-05-07T00:57:02;12.80;99.90
48744;DHT22;34538;48.836;9.174;2023-05-07T00:59:30;12.70;99.90
48744;DHT22;34538;48.836;9.174;2023-05-07T01:01:57;12.70;99.90
48744;DHT22;34538;48.836;9.174;2023-05-07T01:04:25;12.70;99.90
48744;DHT22;34538;48.836;9.174;2023-05-07T01:06:52;12.60;99.90
48744;DHT22;34538;48.836;9.174;2023-05-07T01:09:20;12.60;99.90
48744;DHT22;34538;48.836;9.174;2023-05-07T01:11:49;12.50;99.90
48744;DHT22;34538;48.836;9.174;2023-05-07T01:14:18;12.50;99.90
48744;DHT22;34538;48.836;9.174;2023-05-07T01:16:46;12.50;99.90
48744;DHT22;34538;48.836;9.174;2023-05-07T01:19:14;12.50;99.90
48744;DHT22;34538;48.836;9.174;2023-05-07T01:21:46;12.50;99.90
48744;DHT22;34538;48.836;9.174;2023-05-07T01:24:15;12.40;99.90
48744;DHT22;34538;48.836;9.174;2023-05-07T01:26:43;12.40;99.90
48744;DHT22;34538;48.836;9.174;2023-05-07T01:29:11;12.40;99.90
48744;DHT22;34538;48.836;9.174;2023-05-07T01:31:39;12.40;99.90
48744;DHT22;34538;48.836;9.174;2023-05-07T01:34:08;12.30;99.90
48744;DHT22;34538;48.836;9.174;2023-05-07T01:36:37;12.30;99.90
48744;DHT22;34538;48.836;9.174;2023-05-07T01:39:06;12.30;99.90
48744;DHT22;34538;48.836;9.174;2023-05-07T01:41:35;12.30;99.90
48744;DHT22;34538;48.836;9.174;2023-05-07T01:44:03;12.30;99.90
48744;DHT22;34538;48.836;9.174;2023-05-07T01:46:31;12.30;99.90
48744;DHT22;34538;48.836;9.174;2023-05-07T01:48:58;12.30;99.90
48744;DHT22;34538;48.836;9.174;2023-05-07T01:51:25;12.30;99.90
48744;DHT22;34538;48.836;9.174;2023-05-07T01:53:53;12.30;99.90
48744;DHT22;34538;48.836;9.174;2023-05-07T01:56:20;12.30;99.90
48744;DHT22;34538;48.836;9.174;2023-05-07T01:58:49;12.30;99.90
48744;DHT22;34538;48.836;9.174;2023-05-07T02:01:17;12.30;99.90
48744;DHT22;34538;48.836;9.174;2023-05-07T02:03:44;12.30;99.90
48744;DHT22;34538;48.836;9.174;2023-05-07T02:06:19;12.30;99.90
48744;DHT22;34538;48.836;9.174;2023-05-07T02:08:47;12.30;99.90
48744;DHT22;34538;48.836;9.174;2023-05-07T02:11:14;12.30;99.90
48744;DHT22;34538;48.836;9.174;2023-05-07T02:13:41;12.30;99.90
48744;DHT22;34538;48.836;9.174;2023-05-07T02:16:09;12.30;99.90
48744;DHT22;34538;48.836;9.174;2023-05-07T02:18:38;12.40;99.90
48744;DHT22;34538;48.836;9.174;2023-05-07T02:21:04;12.40;99.90
48744;DHT22;34538;48.836;9.174;2023-05-07T02:23:32;12.30;99.90
48744;DHT22;34538;48.836;9.174;2023-05-07T02:25:59;12.40;99.90
48744;DHT22;34538;48.836;9.174;2023-05-07T02:28:25;12.30;99.90
48744;DHT22;34538;48.836;9.174;2023-05-07T02:30:59;12.30;99.90
48744;DHT22;34538;48.836;9.174;2023-05-07T02:33:29;12.30;99.90
48744;DHT22;34538;48.836;9.174;2023-05-07T02:35:56;12.30;99.90
48744;DHT22;34538;48.836;9.174;2023-05-07T02:38:23;12.20;99.90
48744;DHT22;34538;48.836;9.174;2023-05-07T02:40:50;12.30;99.90
48744;DHT22;34538;48.836;9.174;2023-05-07T02:43:17;12.20;99.90
48744;DHT22;34538;48.836;9.174;2023-05-07T02:45:46;12.20;99.90
48744;DHT22;34538;48.836;9.174;2023-05-07T02:48:14;12.10;99.90
48744;DHT22;34538;48.836;9.174;2023-05-07T02:50:42;12.10;99.90
48744;DHT22;34538;48.836;9.174;2023-05-07T02:53:11;12.00;99.90
48744;DHT22;34538;48.836;9.174;2023-05-07T02:55:38;12.00;99.90
48744;DHT22;34538;48.836;9.174;2023-05-07T02:58:05;11.90;99.90
48744;DHT22;34538;48.836;9.174;2023-05-07T03:00:34;11.90;99.90
48744;DHT22;34538;48.836;9.174;2023-05-07T03:03:17;11.80;99.90
48744;DHT22;34538;48.836;9.174;2023-05-07T03:05:45;11.80;99.90
48744;DHT22;34538;48.836;9.174;2023-05-07T03:08:12;11.80;99.90
48744;DHT22;34538;48.836;9.174;2023-05-07T03:10:39;11.70;99.90
48744;DHT22;34538;48.836;9.174;2023-05-07T03:13:06;11.70;99.90
48744;DHT22;34538;48.836;9.174;2023-05-07T03:15:33;11.60;99.90
48744;DHT22;34538;48.836;9.174;2023-05-07T03:18:00;11.60;99.90
48744;DHT22;34538;48.836;9.174;2023-05-07T03:20:27;11.60;99.90
48744;DHT22;34538;48.836;9.174;2023-05-07T03:22:55;11.50;99.90
48744;DHT22;34538;48.836;9.174;2023-05-07T03:25:22;11.50;99.90
48744;DHT22;34538;48.836;9.174;2023-05-07T03:27:49;11.50;99.90
48744;DHT22;34538;48.836;9.174;2023-05-07T03:30:19;11.50;99.90
48744;DHT22;34538;48.836;9.174;2023-05-07T03:32:46;11.50;99.90
48744;DHT22;34538;48.836;9.174;2023-05-07T03:35:13;11.40;99.90
48744;DHT22;34538;48.836;9.174;2023-05-07T03:37:40;11.40;99.90
48744;DHT22;34538;48.836;9.174;2023-05-07T03:40:10;11.30;99.90
48744;DHT22;34538;48.836;9.174;2023-05-07T03:42:44;11.30;99.90
48744;DHT22;34538;48.836;9.174;2023-05-07T03:45:12;11.30;99.90
48744;DHT22;34538;48.836;9.174;2023-05-07T03:47:44;11.30;99.90
48744;DHT22;34538;48.836;9.174;2023-05-07T03:50:15;11.20;99.90
48744;DHT22;34538;48.836;9.174;2023-05-07T03:52:42;11.30;99.90
48744;DHT22;34538;48.836;9.174;2023-05-07T03:55:11;11.20;99.90
48744;DHT22;34538;48.836;9.174;2023-05-07T03:57:40;11.20;99.90
48744;DHT22;34538;48.836;9.174;2023-05-07T04:00:08;11.10;99.90
48744;DHT22;34538;48.836;9.174;2023-05-07T04:02:46;11.20;99.90
48744;DHT22;34538;48.836;9.174;2023-05-07T04:05:15;11.20;99.90
48744;DHT22;34538;48.836;9.174;2023-05-07T04:07:44;11.10;99.90
48744;DHT22;34538;48.836;9.174;2023-05-07T04:10:15;11.10;99.90
48744;DHT22;34538;48.836;9.174;2023-05-07T04:12:44;11.10;99.90
48744;DHT22;34538;48.836;9.174;2023-05-07T04:15:16;11.10;99.90
48744;DHT22;34538;48.836;9.174;2023-05-07T04:17:42;11.10;99.90
48744;DHT22;34538;48.836;9.174;2023-05-07T04:20:15;11.10;99.90
48744;DHT22;34538;48.836;9.174;2023-05-07T04:22:44;11.10;99.90
48744;DHT22;34538;48.836;9.174;2023-05-07T04:25:11;11.10;99.90
48744;DHT22;34538;48.836;9.174;2023-05-07T04:27:39;11.10;99.90
48744;DHT22;34538;48.836;9.174;2023-05-07T04:30:07;11.10;99.90
48744;DHT22;34538;48.836;9.174;2023-05-07T04:32:38;11.20;99.90
48744;DHT22;34538;48.836;9.174;2023-05-07T04:35:06;11.20;99.90
48744;DHT22;34538;48.836;9.174;2023-05-07T04:37:34;11.20;99.90
48744;DHT22;34538;48.836;9.174;2023-05-07T04:40:01;11.30;99.90
48744;DHT22;34538;48.836;9.174;2023-05-07T04:42:29;11.30;99.90
48744;DHT22;34538;48.836;9.174;2023-05-07T04:44:58;11.40;99.90
48744;DHT22;34538;48.836;9.174;2023-05-07T04:47:25;11.40;99.90
48744;DHT22;34538;48.836;9.174;2023-05-07T04:49:52;11.50;99.90
48744;DHT22;34538;48.836;9.174;2023-05-07T04:52:19;11.60;99.90
48744;DHT22;34538;48.836;9.174;2023-05-07T04:54:46;11.60;99.90
48744;DHT22;34538;48.836;9.174;2023-05-07T04:57:13;11.70;99.90
48744;DHT22;34538;48.836;9.174;2023-05-07T04:59:40;11.80;99.90
48744;DHT22;34538;48.836;9.174;2023-05-07T05:02:10;11.90;99.90
48744;DHT22;34538;48.836;9.174;2023-05-07T05:04:36;11.90;99.90
48744;DHT22;34538;48.836;9.174;2023-05-07T05:07:04;11.90;99.90
48744;DHT22;34538;48.836;9.174;2023-05-07T05:09:31;12.00;99.90
48744;DHT22;34538;48.836;9.174;2023-05-07T05:11:59;12.00;99.90
48744;DHT22;34538;48.836;9.174;2023-05-07T05:14:26;12.00;99.90
48744;DHT22;34538;48.836;9.174;2023-05-07T05:16:52;12.10;99.90
48744;DHT22;34538;48.836;9.174;2023-05-07T05:19:21;12.10;99.90
48744;DHT22;34538;48.836;9.174;2023-05-07T05:21:48;12.20;99.90
48744;DHT22;34538;48.836;9.174;2023-05-07T05:24:15;12.20;99.90
48744;DHT22;34538;48.836;9.174;2023-05-07T05:26:42;12.30;99.90
48744;DHT22;34538;48.836;9.174;2023-05-07T05:29:09;12.30;99.90
48744;DHT22;34538;48.836;9.174;2023-05-07T05:31:39;12.40;99.90
48744;DHT22;34538;48.836;9.174;2023-05-07T05:34:07;12.50;99.90
48744;DHT22;34538;48.836;9.174;2023-05-07T05:36:36;12.50;99.90
48744;DHT22;34538;48.836;9.174;2023-05-07T05:39:04;12.60;99.90
48744;DHT22;34538;48.836;9.174;2023-05-07T05:41:31;12.80;99.90
48744;DHT22;34538;48.836;9.174;2023-05-07T05:43:58;13.20;99.90
48744;DHT22;34538;48.836;9.174;2023-05-07T05:46:25;13.50;99.90
48744;DHT22;34538;48.836;9.174;2023-05-07T05:48:53;13.80;99.90
48744;DHT22;34538;48.836;9.174;2023-05-07T05:51:20;14.20;99.90
48744;DHT22;34538;48.836;9.174;2023-05-07T05:53:49;14.60;99.90
48744;DHT22;34538;48.836;9.174;2023-05-07T05:56:16;14.90;99.90
48744;DHT22;34538;48.836;9.174;2023-05-07T05:58:43;15.30;99.90
48744;DHT22;34538;48.836;9.174;2023-05-07T06:01:10;15.60;99.90
48744;DHT22;34538;48.836;9.174;2023-05-07T06:03:37;15.90;99.90
48744;DHT22;34538;48.836;9.174;2023-05-07T06:06:10;16.20;99.90
48744;DHT22;34538;48.836;9.174;2023-05-07T06:08:37;16.50;99.90
48744;DHT22;34538;48.836;9.174;2023-05-07T06:11:05;16.90;99.90
48744;DHT22;34538;48.836;9.174;2023-05-07T06:13:35;17.00;99.90
48744;DHT22;34538;48.836;9.174;2023-05-07T06:16:02;17.10;99.90
48744;DHT22;34538;48.836;9.174;2023-05-07T06:18:30;17.00;99.90
48744;DHT22;34538;48.836;9.174;2023-05-07T06:20:57;16.90;99.90
48744;DHT22;34538;48.836;9.174;2023-05-07T06:23:27;16.80;99.90
48744;DHT22;34538;48.836;9.174;2023-05-07T06:25:54;16.70;99.90
48744;DHT22;34538;48.836;9.174;2023-05-07T06:28:27;16.60;99.90
48744;DHT22;34538;48.836;9.174;2023-05-07T06:31:11;16.50;99.90
48744;DHT22;34538;48.836;9.174;2023-05-07T06:33:38;16.40;99.90
48744;DHT22;34538;48.836;9.174;2023-05-07T06:36:05;16.30;99.90
48744;DHT22;34538;48.836;9.174;2023-05-07T06:38:35;16.30;99.90
48744;DHT22;34538;48.836;9.174;2023-05-07T06:41:02;16.20;99.90
48744;DHT22;34538;48.836;9.174;2023-05-07T06:43:30;16.20;99.90
48744;DHT22;34538;48.836;9.174;2023-05-07T06:46:16;16.10;99.90
48744;DHT22;34538;48.836;9.174;2023-05-07T06:48:43;16.20;99.90
48744;DHT22;34538;48.836;9.174;2023-05-07T06:51:09;16.20;99.90
48744;DHT22;34538;48.836;9.174;2023-05-07T06:53:36;16.40;99.90
48744;DHT22;34538;48.836;9.174;2023-05-07T06:56:04;16.40;99.90
48744;DHT22;34538;48.836;9.174;2023-05-07T06:58:33;16.50;99.90
48744;DHT22;34538;48.836;9.174;2023-05-07T07:01:00;16.50;99.90
48744;DHT22;34538;48.836;9.174;2023-05-07T07:03:27;16.60;99.90
48744;DHT22;34538;48.836;9.174;2023-05-07T07:05:55;16.70;99.90
48744;DHT22;34538;48.836;9.174;2023-05-07T07:08:23;16.90;99.90
48744;DHT22;34538;48.836;9.174;2023-05-07T07:10:51;16.90;99.90
48744;DHT22;34538;48.836;9.174;2023-05-07T07:13:18;17.00;99.90
48744;DHT22;34538;48.836;9.174;2023-05-07T07:15:46;17.10;99.90
48744;DHT22;34538;48.836;9.174;2023-05-07T07:18:13;17.20;99.90
48744;DHT22;34538;48.836;9.174;2023-05-07T07:20:41;17.30;99.90
48744;DHT22;34538;48.836;9.174;2023-05-07T07:23:10;17.30;99.90
48744;DHT22;34538;48.836;9.174;2023-05-07T07:25:36;17.50;99.90
48744;DHT22;34538;48.836;9.174;2023-05-07T07:28:05;17.50;99.90
48744;DHT22;34538;48.836;9.174;2023-05-07T07:30:32;17.60;99.90
48744;DHT22;34538;48.836;9.174;2023-05-07T07:33:00;17.80;99.90
48744;DHT22;34538;48.836;9.174;2023-05-07T07:35:30;17.90;99.90
48744;DHT22;34538;48.836;9.174;2023-05-07T07:37:57;18.00;99.90
48744;DHT22;34538;48.836;9.174;2023-05-07T07:40:25;18.20;99.90
48744;DHT22;34538;48.836;9.174;2023-05-07T07:42:52;18.40;99.90
48744;DHT22;34538;48.836;9.174;2023-05-07T07:45:19;18.50;99.90
48744;DHT22;34538;48.836;9.174;2023-05-07T07:47:49;18.70;99.90
48744;DHT22;34538;48.836;9.174;2023-05-07T07:50:17;18.80;99.90
48744;DHT22;34538;48.836;9.174;2023-05-07T07:52:44;18.90;99.90
48744;DHT22;34538;48.836;9.174;2023-05-07T07:55:14;18.90;99.90
48744;DHT22;34538;48.836;9.174;2023-05-07T07:57:44;18.90;99.90
48744;DHT22;34538;48.836;9.174;2023-05-07T08:00:12;18.90;99.90
48744;DHT22;34538;48.836;9.174;2023-05-07T08:02:47;19.00;99.90
48744;DHT22;34538;48.836;9.174;2023-05-07T08:05:22;19.00;99.90
48744;DHT22;34538;48.836;9.174;2023-05-07T08:07:50;19.10;99.90
48744;DHT22;34538;48.836;9.174;2023-05-07T08:10:22;19.10;99.90
48744;DHT22;34538;48.836;9.174;2023-05-07T08:12:53;19.10;99.90
48744;DHT22;34538;48.836;9.174;2023-05-07T08:15:20;19.20;99.90
48744;DHT22;34538;48.836;9.174;2023-05-07T08:17:49;19.20;99.90
48744;DHT22;34538;48.836;9.174;2023-05-07T08:20:16;19.30;99.90
48744;DHT22;34538;48.836;9.174;2023-05-07T08:22:44;19.40;99.90
48744;DHT22;34538;48.836;9.174;2023-05-07T08:25:11;19.40;99.90
48744;DHT22;34538;48.836;9.174;2023-05-07T08:27:38;19.60;99.90
48744;DHT22;34538;48.836;9.174;2023-05-07T08:30:07;19.70;99.90
48744;DHT22;34538;48.836;9.174;2023-05-07T08:32:35;19.70;99.90
48744;DHT22;34538;48.836;9.174;2023-05-07T08:35:02;19.80;99.90
48744;DHT22;34538;48.836;9.174;2023-05-07T08:37:29;19.90;99.90
48744;DHT22;34538;48.836;9.174;2023-05-07T08:39:57;19.90;99.90
48744;DHT22;34538;48.836;9.174;2023-05-07T08:42:29;20.00;99.90
48744;DHT22;34538;48.836;9.174;2023-05-07T08:44:59;20.10;99.90
48744;DHT22;34538;48.836;9.174;2023-05-07T08:47:35;20.20;99.90
48744;DHT22;34538;48.836;9.174;2023-05-07T08:50:06;20.20;99.90
48744;DHT22;34538;48.836;9.174;2023-05-07T08:52:34;20.20;99.90
48744;DHT22;34538;48.836;9.174;2023-05-07T08:55:04;20.30;99.90
48744;DHT22;34538;48.836;9.174;2023-05-07T08:57:32;20.40;99.90
48744;DHT22;34538;48.836;9.174;2023-05-07T08:59:59;20.50;99.90
48744;DHT22;34538;48.836;9.174;2023-05-07T09:02:26;20.70;99.90
48744;DHT22;34538;48.836;9.174;2023-05-07T09:04:54;20.80;99.90
48744;DHT22;34538;48.836;9.174;2023-05-07T09:07:21;20.90;99.90
48744;DHT22;34538;48.836;9.174;2023-05-07T09:09:49;21.00;99.90
48744;DHT22;34538;48.836;9.174;2023-05-07T09:12:18;21.10;99.90
48744;DHT22;34538;48.836;9.174;2023-05-07T09:14:45;21.20;99.90
48744;DHT22;34538;48.836;9.174;2023-05-07T09:17:13;21.30;99.90
48744;DHT22;34538;48.836;9.174;2023-05-07T09:19:39;21.40;99.90
48744;DHT22;34538;48.836;9.174;2023-05-07T09:22:07;21.50;99.90
48744;DHT22;34538;48.836;9.174;2023-05-07T09:24:47;21.60;99.90
48744;DHT22;34538;48.836;9.174;2023-05-07T09:27:15;21.80;99.90
48744;DHT22;34538;48.836;9.174;2023-05-07T09:29:45;22.00;99.90
48744;DHT22;34538;48.836;9.174;2023-05-07T09:32:14;22.10;99.90
48744;DHT22;34538;48.836;9.174;2023-05-07T09:34:42;22.20;99.90
48744;DHT22;34538;48.836;9.174;2023-05-07T09:37:12;22.20;99.90
48744;DHT22;34538;48.836;9.174;2023-05-07T09:39:41;22.20;99.90
48744;DHT22;34538;48.836;9.174;2023-05-07T09:42:08;22.30;99.90
48744;DHT22;34538;48.836;9.174;2023-05-07T09:44:37;22.30;99.90
48744;DHT22;34538;48.836;9.174;2023-05-07T09:47:11;22.40;99.90
48744;DHT22;34538;48.836;9.174;2023-05-07T09:49:47;22.40;99.90
48744;DHT22;34538;48.836;9.174;2023-05-07T09:52:18;22.50;99.90
48744;DHT22;34538;48.836;9.174;2023-05-07T09:54:50;22.50;99.90
48744;DHT22;34538;48.836;9.174;2023-05-07T09:57:21;22.50;99.90
48744;DHT22;34538;48.836;9.174;2023-05-07T09:59:54;22.60;99.90
48744;DHT22;34538;48.836;9.174;2023-05-07T10:02:25;22.60;99.90
48744;DHT22;34538;48.836;9.174;2023-05-07T10:04:55;22.70;99.90
48744;DHT22;34538;48.836;9.174;2023-05-07T10:07:28;22.80;99.90
48744;DHT22;34538;48.836;9.174;2023-05-07T10:10:00;22.90;99.90
48744;DHT22;34538;48.836;9.174;2023-05-07T10:12:35;22.90;99.90
48744;DHT22;34538;48.836;9.174;2023-05-07T10:15:08;23.00;99.90
48744;DHT22;34538;48.836;9.174;2023-05-07T10:17:39;23.00;99.90
48744;DHT22;34538;48.836;9.174;2023-05-07T10:20:08;23.00;99.90
48744;DHT22;34538;48.836;9.174;2023-05-07T10:22:39;23.20;99.90
48744;DHT22;34538;48.836;9.174;2023-05-07T10:25:09;23.20;99.90
48744;DHT22;34538;48.836;9.174;2023-05-07T10:27:41;23.20;99.90
48744;DHT22;34538;48.836;9.174;2023-05-07T10:30:18;23.20;99.90
48744;DHT22;34538;48.836;9.174;2023-05-07T10:32:53;23.30;99.90
48744;DHT22;34538;48.836;9.174;2023-05-07T10:35:30;23.40;99.90
48744;DHT22;34538;48.836;9.174;2023-05-07T10:38:00;23.50;99.90
48744;DHT22;34538;48.836;9.174;2023-05-07T10:40:30;23.60;99.90
48744;DHT22;34538;48.836;9.174;2023-05-07T10:42:59;23.60;99.30
48744;DHT22;34538;48.836;9.174;2023-05-07T10:45:29;23.60;99.20
48744;DHT22;34538;48.836;9.174;2023-05-07T10:48:10;23.60;99.50
48744;DHT22;34538;48.836;9.174;2023-05-07T10:50:39;23.50;99.90
48744;DHT22;34538;48.836;9.174;2023-05-07T10:53:23;23.50;99.90
48744;DHT22;34538;48.836;9.174;2023-05-07T10:56:25;23.50;99.90
48744;DHT22;34538;48.836;9.174;2023-05-07T10:59:32;23.60;99.90
48744;DHT22;34538;48.836;9.174;2023-05-07T11:02:09;23.70;99.90
48744;DHT22;34538;48.836;9.174;2023-05-07T11:05:22;23.70;99.90
48744;DHT22;34538;48.836;9.174;2023-05-07T11:07:57;23.70;99.90
48744;DHT22;34538;48.836;9.174;2023-05-07T11:10:50;23.70;99.90
48744;DHT22;34538;48.836;9.174;2023-05-07T11:13:42;23.70;99.90
48744;DHT22;34538;48.836;9.174;2023-05-07T11:16:18;23.70;99.90
48744;DHT22;34538;48.836;9.174;2023-05-07T11:18:48;23.60;99.90
48744;DHT22;34538;48.836;9.174;2023-05-07T11:21:33;23.50;99.90
48744;DHT22;34538;48.836;9.174;2023-05-07T11:24:10;23.40;99.90
48744;DHT22;34538;48.836;9.174;2023-05-07T11:26:49;23.30;99.90
48744;DHT22;34538;48.836;9.174;2023-05-07T11:29:19;23.30;99.90
48744;DHT22;34538;48.836;9.174;2023-05-07T11:31:50;23.20;99.90
48744;DHT22;34538;48.836;9.174;2023-05-07T11:34:23;23.10;99.90
48744;DHT22;34538;48.836;9.174;2023-05-07T11:36:53;23.10;99.90
48744;DHT22;34538;48.836;9.174;2023-05-07T11:39:28;23.10;99.90
48744;DHT22;34538;48.836;9.174;2023-05-07T11:41:57;23.00;99.90
48744;DHT22;34538;48.836;9.174;2023-05-07T11:44:23;23.00;99.90
48744;DHT22;34538;48.836;9.174;2023-05-07T11:46:50;22.90;99.90
48744;DHT22;34538;48.836;9.174;2023-05-07T11:49:18;22.90;99.90
48744;DHT22;34538;48.836;9.174;2023-05-07T11:51:45;22.90;99.90
48744;DHT22;34538;48.836;9.174;2023-05-07T11:54:15;22.90;99.90
48744;DHT22;34538;48.836;9.174;2023-05-07T11:56:44;22.90;99.90
48744;DHT22;34538;48.836;9.174;2023-05-07T11:59:11;22.90;99.90
48744;DHT22;34538;48.836;9.174;2023-05-07T12:01:38;22.90;99.90
48744;DHT22;34538;48.836;9.174;2023-05-07T12:04:05;22.90;99.90
48744;DHT22;34538;48.836;9.174;2023-05-07T12:06:36;22.80;99.90
48744;DHT22;34538;48.836;9.174;2023-05-07T12:09:04;22.80;99.90
48744;DHT22;34538;48.836;9.174;2023-05-07T12:11:34;22.70;99.90
48744;DHT22;34538;48.836;9.174;2023-05-07T12:14:01;22.70;99.90
48744;DHT22;34538;48.836;9.174;2023-05-07T12:16:29;22.70;99.60
48744;DHT22;34538;48.836;9.174;2023-05-07T12:18:56;22.60;99.60
48744;DHT22;34538;48.836;9.174;2023-05-07T12:21:24;22.60;99.70
48744;DHT22;34538;48.836;9.174;2023-05-07T12:23:51;22.60;99.70
48744;DHT22;34538;48.836;9.174;2023-05-07T12:26:19;22.60;99.80
48744;DHT22;34538;48.836;9.174;2023-05-07T12:28:47;22.50;99.20
48744;DHT22;34538;48.836;9.174;2023-05-07T12:31:15;22.50;99.80
48744;DHT22;34538;48.836;9.174;2023-05-07T12:33:42;22.40;99.90
48744;DHT22;34538;48.836;9.174;2023-05-07T12:36:12;22.40;99.90
48744;DHT22;34538;48.836;9.174;2023-05-07T12:38:39;22.40;99.90
48744;DHT22;34538;48.836;9.174;2023-05-07T12:41:08;22.30;99.90
48744;DHT22;34538;48.836;9.174;2023-05-07T12:43:35;22.30;99.90
48744;DHT22;34538;48.836;9.174;2023-05-07T12:46:04;22.20;99.90
48744;DHT22;34538;48.836;9.174;2023-05-07T12:48:32;22.00;99.90
48744;DHT22;34538;48.836;9.174;2023-05-07T12:51:00;21.70;99.90
48744;DHT22;34538;48.836;9.174;2023-05-07T12:53:28;21.50;99.90
48744;DHT22;34538;48.836;9.174;2023-05-07T12:55:57;21.20;99.90
48744;DHT22;34538;48.836;9.174;2023-05-07T12:58:25;20.80;99.90
48744;DHT22;34538;48.836;9.174;2023-05-07T13:00:53;20.50;99.90
48744;DHT22;34538;48.836;9.174;2023-05-07T13:03:26;20.10;99.90
48744;DHT22;34538;48.836;9.174;2023-05-07T13:05:55;19.60;99.90
48744;DHT22;34538;48.836;9.174;2023-05-07T13:08:26;19.30;99.90
48744;DHT22;34538;48.836;9.174;2023-05-07T13:10:53;18.90;99.90
48744;DHT22;34538;48.836;9.174;2023-05-07T13:13:20;18.60;99.90
48744;DHT22;34538;48.836;9.174;2023-05-07T13:15:48;18.30;99.90
48744;DHT22;34538;48.836;9.174;2023-05-07T13:18:16;18.10;99.90
48744;DHT22;34538;48.836;9.174;2023-05-07T13:20:44;18.00;99.90
48744;DHT22;34538;48.836;9.174;2023-05-07T13:23:10;17.80;99.90
48744;DHT22;34538;48.836;9.174;2023-05-07T13:25:37;17.70;99.90
48744;DHT22;34538;48.836;9.174;2023-05-07T13:28:04;17.60;99.90
48744;DHT22;34538;48.836;9.174;2023-05-07T13:30:31;17.50;99.90
48744;DHT22;34538;48.836;9.174;2023-05-07T13:32:58;17.30;99.90
48744;DHT22;34538;48.836;9.174;2023-05-07T13:35:24;17.20;99.90
48744;DHT22;34538;48.836;9.174;2023-05-07T13:37:53;17.00;99.90
48744;DHT22;34538;48.836;9.174;2023-05-07T13:40:20;16.80;99.90
48744;DHT22;34538;48.836;9.174;2023-05-07T13:42:47;16.70;99.90
48744;DHT22;34538;48.836;9.174;2023-05-07T13:45:14;16.50;99.90
48744;DHT22;34538;48.836;9.174;2023-05-07T13:47:41;16.40;99.90
48744;DHT22;34538;48.836;9.174;2023-05-07T13:50:09;16.20;99.90
48744;DHT22;34538;48.836;9.174;2023-05-07T13:52:36;16.20;99.90
48744;DHT22;34538;48.836;9.174;2023-05-07T13:55:07;16.10;99.90
48744;DHT22;34538;48.836;9.174;2023-05-07T13:57:34;16.00;99.90
48744;DHT22;34538;48.836;9.174;2023-05-07T14:00:01;16.00;99.90
48744;DHT22;34538;48.836;9.174;2023-05-07T14:02:29;15.90;99.90
48744;DHT22;34538;48.836;9.174;2023-05-07T14:04:56;15.90;99.90
48744;DHT22;34538;48.836;9.174;2023-05-07T14:07:23;16.00;99.90
48744;DHT22;34538;48.836;9.174;2023-05-07T14:09:50;16.10;99.90
48744;DHT22;34538;48.836;9.174;2023-05-07T14:12:18;16.10;99.90
48744;DHT22;34538;48.836;9.174;2023-05-07T14:14:45;16.10;99.90
48744;DHT22;34538;48.836;9.174;2023-05-07T14:17:12;16.10;99.90
48744;DHT22;34538;48.836;9.174;2023-05-07T14:19:39;16.10;99.90
48744;DHT22;34538;48.836;9.174;2023-05-07T14:22:06;16.10;99.90
48744;DHT22;34538;48.836;9.174;2023-05-07T14:24:32;16.20;99.90
48744;DHT22;34538;48.836;9.174;2023-05-07T14:26:59;16.20;99.90
48744;DHT22;34538;48.836;9.174;2023-05-07T14:29:28;16.20;99.90
48744;DHT22;34538;48.836;9.174;2023-05-07T14:31:55;16.20;99.90
48744;DHT22;34538;48.836;9.174;2023-05-07T14:34:21;16.20;99.90
48744;DHT22;34538;48.836;9.174;2023-05-07T14:36:48;16.30;99.90
48744;DHT22;34538;48.836;9.174;2023-05-07T14:39:15;16.20;99.90
48744;DHT22;34538;48.836;9.174;2023-05-07T14:41:42;16.30;99.90
48744;DHT22;34538;48.836;9.174;2023-05-07T14:44:09;16.20;99.90
48744;DHT22;34538;48.836;9.174;2023-05-07T14:46:37;16.30;99.90
48744;DHT22;34538;48.836;9.174;2023-05-07T14:49:04;16.20;99.90
48744;DHT22;34538;48.836;9.174;2023-05-07T14:51:31;16.20;99.90
48744;DHT22;34538;48.836;9.174;2023-05-07T14:53:58;16.20;99.90
48744;DHT22;34538;48.836;9.174;2023-05-07T14:56:25;16.20;99.90
48744;DHT22;34538;48.836;9.174;2023-05-07T14:58:52;16.20;99.90
48744;DHT22;34538;48.836;9.174;2023-05-07T15:01:20;16.20;99.90
48744;DHT22;34538;48.836;9.174;2023-05-07T15:03:48;16.30;99.90
48744;DHT22;34538;48.836;9.174;2023-05-07T15:06:15;16.30;99.90
48744;DHT22;34538;48.836;9.174;2023-05-07T15:08:42;16.30;99.90
48744;DHT22;34538;48.836;9.174;2023-05-07T15:11:08;16.30;99.90
48744;DHT22;34538;48.836;9.174;2023-05-07T15:13:35;16.40;99.90
48744;DHT22;34538;48.836;9.174;2023-05-07T15:16:02;16.40;99.90
48744;DHT22;34538;48.836;9.174;2023-05-07T15:18:29;16.40;99.90
48744;DHT22;34538;48.836;9.174;2023-05-07T15:20:57;16.40;99.90
48744;DHT22;34538;48.836;9.174;2023-05-07T15:23:24;16.50;99.90
48744;DHT22;34538;48.836;9.174;2023-05-07T15:25:51;16.50;99.90
48744;DHT22;34538;48.836;9.174;2023-05-07T15:28:18;16.60;99.90
48744;DHT22;34538;48.836;9.174;2023-05-07T15:30:45;16.60;99.90
48744;DHT22;34538;48.836;9.174;2023-05-07T15:33:12;16.70;99.90
48744;DHT22;34538;48.836;9.174;2023-05-07T15:35:40;16.70;99.90
48744;DHT22;34538;48.836;9.174;2023-05-07T15:38:08;16.80;99.90
48744;DHT22;34538;48.836;9.174;2023-05-07T15:40:35;16.90;99.90